Time;durP1;ratioP1;P1;durP2;ratioP2;P2;SDS_P1;SDS_P2;PMS_P1;PMS_P2;Temp;Humidity;BMP_temperature;BMP_pressure;BME280_temperature;BME280_humidity;BME280_pressure;Samples;Min_cycle;Max_cycle;Signal;HPM_P1;HPM_P2
2024/03/18 00:01:50;;;;;;;0.73;0.40;;;4.10;77.60;;;;;;5047546;28;20095;-65
2024/03/18 00:04:15;;;;;;;0.82;0.70;;;4.10;77.50;;;;;;5043279;28;20372;-65
2024/03/18 00:06:41;;;;;;;1.10;0.52;;;4.10;77.40;;;;;;5039912;28;20131;-66
2024/03/18 00:09:07;;;;;;;1.55;0.77;;;4.10;77.60;;;;;;5042539;28;20037;-66
2024/03/18 00:11:32;;;;;;;1.25;0.68;;;4.10;77.50;;;;;;5035156;28;20051;-65
2024/03/18 00:13:58;;;;;;;1.75;0.80;;;4.10;77.70;;;;;;5032199;28;20037;-66
2024/03/18 00:16:24;;;;;;;1.65;0.82;;;4.10;77.80;;;;;;5032628;28;20037;-65
2024/03/18 00:18:50;;;;;;;2.13;0.57;;;4.10;78.00;;;;;;5034443;28;20063;-65
2024/03/18 00:21:15;;;;;;;2.15;0.47;;;4.10;78.10;;;;;;5036769;28;20136;-65
2024/03/18 00:23:41;;;;;;;0.98;0.63;;;4.10;78.20;;;;;;5037145;28;20183;-66
2024/03/18 00:26:07;;;;;;;4.47;1.00;;;4.10;78.20;;;;;;5032185;28;20098;-65
2024/03/18 00:28:33;;;;;;;0.63;0.52;;;4.00;78.20;;;;;;5036374;28;20048;-65
2024/03/18 00:30:58;;;;;;;1.15;0.70;;;4.00;78.30;;;;;;5037258;28;20037;-65
2024/03/18 00:33:24;;;;;;;1.67;0.70;;;4.00;78.30;;;;;;5047218;28;20031;-65
2024/03/18 00:35:58;;;;;;;0.50;0.50;;;4.00;78.30;;;;;;5035831;28;20028;-66
2024/03/18 00:38:24;;;;;;;1.25;0.80;;;4.00;78.10;;;;;;5032789;28;20038;-67
2024/03/18 00:43:38;;;;;;;1.65;0.85;;;4.00;78.10;;;;;;5033852;28;20450;-65
2024/03/18 00:46:03;;;;;;;1.35;0.60;;;4.00;78.30;;;;;;5039795;28;20029;-66
2024/03/18 00:48:30;;;;;;;0.95;0.50;;;4.00;78.40;;;;;;5029745;28;20388;-66
2024/03/18 00:50:55;;;;;;;0.55;0.50;;;3.90;78.50;;;;;;5029860;28;20091;-65
2024/03/18 00:53:21;;;;;;;2.30;0.63;;;3.90;78.50;;;;;;5029451;28;20450;-68
2024/03/18 00:55:46;;;;;;;1.50;0.70;;;3.90;78.50;;;;;;5034667;28;20039;-66
2024/03/18 00:58:11;;;;;;;0.95;0.63;;;3.90;78.40;;;;;;5034612;28;20061;-65
2024/03/18 01:00:37;;;;;;;0.90;0.50;;;3.90;78.60;;;;;;5031660;28;20037;-66
2024/03/18 01:03:03;;;;;;;1.70;0.80;;;3.90;78.80;;;;;;5035011;28;20026;-66
2024/03/18 01:05:29;;;;;;;0.55;0.52;;;3.90;78.70;;;;;;5039694;28;20040;-66
2024/03/18 01:07:55;;;;;;;0.73;0.63;;;3.90;78.80;;;;;;5034456;28;20044;-65
2024/03/18 01:10:21;;;;;;;0.85;0.70;;;3.90;78.80;;;;;;5031562;28;20474;-67
2024/03/18 01:12:46;;;;;;;0.50;0.50;;;3.80;78.90;;;;;;5040952;28;20136;-65
2024/03/18 01:15:12;;;;;;;1.27;0.93;;;3.90;78.90;;;;;;5036561;28;20048;-65
2024/03/18 01:17:37;;;;;;;2.17;0.90;;;3.90;78.80;;;;;;5039617;28;20072;-65
2024/03/18 01:20:09;;;;;;;2.35;0.60;;;3.90;79.00;;;;;;5039456;28;20080;-65
2024/03/18 01:22:35;;;;;;;1.00;0.80;;;3.90;78.80;;;;;;5032200;28;20471;-66
2024/03/18 01:25:01;;;;;;;1.80;0.40;;;3.90;79.00;;;;;;5041400;28;20032;-67
2024/03/18 01:27:28;;;;;;;1.92;0.75;;;3.90;79.00;;;;;;5039803;28;20040;-66
2024/03/18 01:29:55;;;;;;;1.10;0.88;;;3.90;79.00;;;;;;5048730;28;20121;-65
2024/03/18 01:32:22;;;;;;;1.45;0.80;;;3.90;79.00;;;;;;5032789;28;20035;-65
2024/03/18 01:34:48;;;;;;;2.22;0.70;;;3.80;79.10;;;;;;5035826;28;20034;-66
2024/03/18 01:37:14;;;;;;;1.17;0.70;;;3.80;79.30;;;;;;5038176;28;20115;-66
2024/03/18 01:39:40;;;;;;;1.33;0.77;;;3.80;79.30;;;;;;5037518;28;20117;-66
2024/03/18 01:42:05;;;;;;;1.42;0.70;;;3.70;79.30;;;;;;5041331;28;20156;-65
2024/03/18 01:44:31;;;;;;;0.82;0.68;;;3.80;79.40;;;;;;5034689;28;20249;-65
2024/03/18 01:46:56;;;;;;;5.53;0.80;;;3.80;79.30;;;;;;5038992;28;20036;-65
2024/03/18 01:49:22;;;;;;;1.17;0.60;;;3.80;79.60;;;;;;5026652;28;20514;-64
2024/03/18 01:51:48;;;;;;;0.80;0.55;;;3.80;79.60;;;;;;5033677;28;20305;-64
2024/03/18 01:54:14;;;;;;;2.15;1.10;;;3.70;79.70;;;;;;5033273;28;20465;-66
2024/03/18 01:56:39;;;;;;;0.98;0.75;;;3.70;79.70;;;;;;5029621;28;20041;-65
2024/03/18 01:59:06;;;;;;;0.90;0.70;;;3.70;79.80;;;;;;5036034;28;20048;-64
2024/03/18 02:01:31;;;;;;;0.82;0.60;;;3.70;79.80;;;;;;5034054;28;20041;-65
2024/03/18 02:04:07;;;;;;;1.42;0.52;;;3.70;79.80;;;;;;5035911;28;20035;-65
2024/03/18 02:06:32;;;;;;;0.98;0.77;;;3.70;79.90;;;;;;5030029;28;20021;-64
2024/03/18 02:08:58;;;;;;;1.75;0.93;;;3.70;79.70;;;;;;5034277;28;20448;-64
2024/03/18 02:11:23;;;;;;;1.17;0.60;;;3.70;79.90;;;;;;5037582;28;20107;-64
2024/03/18 02:13:49;;;;;;;0.52;0.52;;;3.60;79.90;;;;;;5036037;28;20044;-65
2024/03/18 02:16:15;;;;;;;0.63;0.60;;;3.60;79.80;;;;;;5034564;28;20056;-65
2024/03/18 02:18:40;;;;;;;1.52;0.90;;;3.60;79.80;;;;;;5039304;28;20072;-65
2024/03/18 02:21:06;;;;;;;0.55;0.50;;;3.60;79.90;;;;;;5028880;28;20033;-64
2024/03/18 02:23:31;;;;;;;0.60;0.60;;;3.60;80.20;;;;;;5028422;28;20029;-65
2024/03/18 02:25:57;;;;;;;0.70;0.70;;;3.60;80.10;;;;;;5036530;28;20041;-65
2024/03/18 02:28:23;;;;;;;1.27;0.80;;;3.60;80.30;;;;;;5038172;28;20121;-64
2024/03/18 02:30:49;;;;;;;1.08;0.52;;;3.60;80.40;;;;;;5030660;28;20140;-64
2024/03/18 02:33:14;;;;;;;2.92;0.63;;;3.60;80.40;;;;;;5028581;28;20399;-64
2024/03/18 02:35:40;;;;;;;1.00;0.60;;;3.60;80.50;;;;;;5030726;28;20056;-66
2024/03/18 02:38:05;;;;;;;0.57;0.52;;;3.60;80.60;;;;;;5035260;28;20041;-65
2024/03/18 02:40:31;;;;;;;3.65;1.02;;;3.60;80.50;;;;;;5025074;28;20195;-65
2024/03/18 02:42:56;;;;;;;1.08;0.82;;;3.50;80.90;;;;;;5027159;28;20358;-64
2024/03/18 02:45:22;;;;;;;0.73;0.70;;;3.50;80.80;;;;;;5028908;28;20129;-65
2024/03/18 02:47:47;;;;;;;1.95;0.93;;;3.50;80.90;;;;;;5031229;28;20123;-64
2024/03/18 02:50:18;;;;;;;0.68;0.50;;;3.50;80.80;;;;;;5034035;28;20059;-64
2024/03/18 02:52:44;;;;;;;2.05;0.70;;;3.50;81.00;;;;;;5028077;28;20121;-64
2024/03/18 02:55:10;;;;;;;0.52;0.52;;;3.50;80.90;;;;;;5031058;28;20025;-65
2024/03/18 02:57:35;;;;;;;0.85;0.73;;;3.50;81.10;;;;;;5028947;28;20068;-65
2024/03/18 03:00:05;;;;;;;2.38;0.65;;;3.50;81.00;;;;;;5041526;28;20112;-65
2024/03/18 03:02:30;;;;;;;1.08;0.77;;;3.50;81.10;;;;;;5036781;28;20281;-65
2024/03/18 03:04:56;;;;;;;1.58;0.70;;;3.40;81.20;;;;;;5033342;28;20092;-64
2024/03/18 03:07:21;;;;;;;2.17;0.90;;;3.40;81.30;;;;;;5033382;28;20393;-65
2024/03/18 03:09:47;;;;;;;1.60;1.02;;;3.40;81.40;;;;;;5026802;28;20445;-64
2024/03/18 03:12:12;;;;;;;1.15;0.82;;;3.40;81.30;;;;;;5032759;28;20052;-64
2024/03/18 03:14:38;;;;;;;1.10;0.80;;;3.40;81.40;;;;;;5034774;28;20147;-64
2024/03/18 03:17:07;;;;;;;2.78;0.98;;;3.40;81.40;;;;;;5028875;28;20109;-65
2024/03/18 03:19:32;;;;;;;0.73;0.60;;;3.40;81.40;;;;;;5027055;28;20084;-64
2024/03/18 03:21:58;;;;;;;2.15;0.70;;;3.40;81.50;;;;;;5027706;28;20025;-64
2024/03/18 03:24:23;;;;;;;0.47;0.47;;;3.40;81.50;;;;;;5033822;28;20037;-65
2024/03/18 03:26:48;;;;;;;0.70;0.60;;;3.30;81.60;;;;;;5032692;28;20441;-64
2024/03/18 03:29:14;;;;;;;1.17;0.98;;;3.30;81.70;;;;;;5028043;28;20043;-64
2024/03/18 03:31:39;;;;;;;3.58;0.93;;;3.30;81.80;;;;;;5031713;28;20033;-65
2024/03/18 03:34:05;;;;;;;0.98;0.73;;;3.30;81.80;;;;;;5029320;28;20078;-65
2024/03/18 03:36:32;;;;;;;1.40;0.70;;;3.30;82.20;;;;;;5040050;28;20033;-65
2024/03/18 03:38:58;;;;;;;1.08;0.75;;;3.30;82.00;;;;;;5026843;28;20513;-64
2024/03/18 03:41:24;;;;;;;2.75;1.00;;;3.30;82.20;;;;;;5025817;28;20098;-65
2024/03/18 03:43:49;;;;;;;1.15;0.90;;;3.20;82.00;;;;;;5037478;28;20611;-65
2024/03/18 03:46:15;;;;;;;3.90;0.80;;;3.20;82.10;;;;;;5028487;28;20131;-64
2024/03/18 03:48:40;;;;;;;1.17;0.80;;;3.20;82.10;;;;;;5046244;28;20037;-65
2024/03/18 03:51:05;;;;;;;0.63;0.60;;;3.20;82.30;;;;;;5037494;28;20041;-65
2024/03/18 03:53:31;;;;;;;1.10;0.73;;;3.20;82.30;;;;;;5028768;28;20138;-65
2024/03/18 03:55:57;;;;;;;1.73;0.90;;;3.20;82.20;;;;;;5023568;28;20059;-64
2024/03/18 03:58:24;;;;;;;1.17;0.90;;;3.20;82.30;;;;;;5035965;28;20049;-65
2024/03/18 04:00:49;;;;;;;2.10;0.88;;;3.10;82.30;;;;;;5030569;28;20362;-65
2024/03/18 04:03:17;;;;;;;0.65;0.65;;;3.10;82.40;;;;;;5033127;28;20059;-65
2024/03/18 04:05:43;;;;;;;0.77;0.60;;;3.10;82.30;;;;;;5036454;28;20069;-64
2024/03/18 04:08:09;;;;;;;1.05;0.75;;;3.10;82.50;;;;;;5038363;28;20073;-64
2024/03/18 04:10:34;;;;;;;2.35;0.98;;;3.10;82.50;;;;;;5032299;28;20037;-64
2024/03/18 04:13:00;;;;;;;2.38;1.10;;;3.10;82.60;;;;;;5034168;28;20138;-64
2024/03/18 04:15:27;;;;;;;1.48;0.93;;;3.10;82.70;;;;;;5029524;28;20644;-65
2024/03/18 04:17:53;;;;;;;0.52;0.52;;;3.10;82.70;;;;;;5039660;28;20442;-65
2024/03/18 04:20:18;;;;;;;1.83;1.00;;;3.10;82.80;;;;;;5030090;28;20132;-64
2024/03/18 04:22:48;;;;;;;2.03;0.80;;;3.10;82.60;;;;;;5036146;28;20037;-64
2024/03/18 04:25:15;;;;;;;0.70;0.70;;;3.10;82.70;;;;;;5025896;28;20442;-65
2024/03/18 04:27:43;;;;;;;1.58;0.60;;;3.10;82.90;;;;;;5030709;28;20101;-65
2024/03/18 04:30:13;;;;;;;1.77;1.30;;;3.00;82.80;;;;;;5032127;28;20082;-65
2024/03/18 04:32:43;;;;;;;2.70;1.00;;;3.00;82.90;;;;;;5026457;28;20204;-64
2024/03/18 04:35:09;;;;;;;0.68;0.65;;;3.10;82.90;;;;;;5027567;28;20041;-65
2024/03/18 04:37:34;;;;;;;0.82;0.60;;;3.10;82.90;;;;;;5035814;28;20037;-64
2024/03/18 04:40:03;;;;;;;2.15;0.98;;;3.00;82.80;;;;;;5028073;28;20074;-64
2024/03/18 04:42:29;;;;;;;4.38;0.70;;;3.00;83.00;;;;;;5034084;28;20065;-64
2024/03/18 04:44:54;;;;;;;2.75;0.98;;;3.00;82.90;;;;;;5031860;28;20053;-64
2024/03/18 04:47:22;;;;;;;1.60;1.08;;;3.00;82.90;;;;;;5035825;28;20049;-66
2024/03/18 04:49:48;;;;;;;1.08;0.80;;;3.00;83.00;;;;;;5033722;28;20044;-65
2024/03/18 04:52:13;;;;;;;0.93;0.90;;;3.00;83.10;;;;;;5032748;28;20067;-64
2024/03/18 04:54:39;;;;;;;2.97;1.17;;;3.00;83.10;;;;;;5030168;28;20140;-64
2024/03/18 04:57:04;;;;;;;3.42;1.00;;;3.00;82.90;;;;;;5037606;28;20128;-65
2024/03/18 04:59:30;;;;;;;5.15;0.90;;;3.00;83.00;;;;;;5042407;28;20036;-64
2024/03/18 05:01:55;;;;;;;1.25;0.98;;;2.90;83.10;;;;;;5039234;28;20450;-64
2024/03/18 05:04:21;;;;;;;2.67;0.90;;;2.90;83.00;;;;;;5041681;28;20057;-66
2024/03/18 05:06:46;;;;;;;2.15;0.82;;;3.00;83.30;;;;;;5036609;28;20029;-64
2024/03/18 05:09:12;;;;;;;2.45;0.98;;;3.00;83.10;;;;;;5040055;28;20064;-66
2024/03/18 05:11:37;;;;;;;3.42;1.38;;;3.00;83.30;;;;;;5030758;28;20333;-65
2024/03/18 05:14:03;;;;;;;3.25;0.90;;;2.90;83.20;;;;;;5034363;28;20036;-66
2024/03/18 05:16:35;;;;;;;0.80;0.80;;;2.90;83.10;;;;;;5040393;28;20041;-65
2024/03/18 05:19:01;;;;;;;2.28;1.10;;;2.90;83.10;;;;;;5034800;28;20037;-64
2024/03/18 05:21:26;;;;;;;1.42;1.00;;;2.90;83.20;;;;;;5030309;28;20434;-64
2024/03/18 05:23:52;;;;;;;1.00;0.70;;;2.90;83.20;;;;;;5031390;28;20358;-66
2024/03/18 05:26:17;;;;;;;1.95;1.08;;;2.90;83.30;;;;;;5036099;28;20025;-65
2024/03/18 05:28:43;;;;;;;1.88;1.05;;;2.90;83.20;;;;;;5029487;28;20114;-63
2024/03/18 05:31:08;;;;;;;1.08;0.68;;;2.90;83.20;;;;;;5034839;28;20374;-63
2024/03/18 05:33:33;;;;;;;2.92;1.27;;;2.90;83.10;;;;;;5034179;28;20048;-62
2024/03/18 05:35:59;;;;;;;1.77;0.90;;;3.00;83.30;;;;;;5031664;28;20049;-62
2024/03/18 05:38:24;;;;;;;2.53;1.10;;;2.90;83.20;;;;;;5032674;28;20029;-63
2024/03/18 05:40:50;;;;;;;0.80;0.80;;;2.90;83.20;;;;;;5039305;28;20060;-63
2024/03/18 05:43:15;;;;;;;1.35;0.90;;;2.90;83.10;;;;;;5035099;28;20049;-62
2024/03/18 05:45:41;;;;;;;1.85;0.70;;;3.00;83.20;;;;;;5032993;28;20326;-63
2024/03/18 05:48:07;;;;;;;1.45;0.90;;;3.00;83.00;;;;;;5031510;28;20029;-62
2024/03/18 05:50:32;;;;;;;1.50;0.98;;;3.00;82.90;;;;;;5026677;28;20163;-64
2024/03/18 05:52:58;;;;;;;1.25;0.77;;;3.00;83.10;;;;;;5030889;28;20123;-63
2024/03/18 05:55:23;;;;;;;1.05;0.80;;;3.00;82.90;;;;;;5026155;28;20041;-63
2024/03/18 05:57:49;;;;;;;1.83;1.08;;;3.00;82.60;;;;;;5037069;28;20020;-64
2024/03/18 06:00:15;;;;;;;1.05;0.80;;;3.00;82.90;;;;;;5032707;28;20045;-63
2024/03/18 06:02:40;;;;;;;2.00;1.10;;;3.10;82.60;;;;;;5030564;28;20048;-62
2024/03/18 06:05:06;;;;;;;1.70;1.10;;;3.10;82.50;;;;;;5035069;28;20426;-62
2024/03/18 06:07:31;;;;;;;2.33;1.35;;;3.00;82.40;;;;;;5034860;28;20528;-62
2024/03/18 06:09:57;;;;;;;2.53;1.63;;;3.10;82.50;;;;;;5027210;28;20029;-63
2024/03/18 06:12:27;;;;;;;0.88;0.70;;;3.10;82.50;;;;;;5035460;28;20100;-62
2024/03/18 06:14:52;;;;;;;2.92;0.82;;;3.10;82.40;;;;;;5030616;28;20044;-63
2024/03/18 06:17:18;;;;;;;1.90;1.00;;;3.10;82.30;;;;;;5029821;28;20042;-62
2024/03/18 06:19:43;;;;;;;1.23;0.95;;;3.10;82.20;;;;;;5032631;28;20191;-63
2024/03/18 06:22:20;;;;;;;1.45;0.90;;;3.10;82.40;;;;;;5035180;28;20498;-62
2024/03/18 06:27:30;;;;;;;1.15;0.70;;;3.10;82.40;;;;;;5037353;28;20070;-62
2024/03/18 06:29:55;;;;;;;1.27;0.68;;;3.10;82.30;;;;;;5032843;28;20403;-63
2024/03/18 06:32:21;;;;;;;2.00;1.10;;;3.10;82.20;;;;;;5033929;28;20068;-63
2024/03/18 06:34:46;;;;;;;2.03;1.17;;;3.10;82.40;;;;;;5030124;28;20484;-62
2024/03/18 06:37:12;;;;;;;1.17;0.85;;;3.10;82.30;;;;;;5031416;28;20029;-63
2024/03/18 06:39:37;;;;;;;1.45;1.02;;;3.10;82.20;;;;;;5026780;28;20025;-62
2024/03/18 06:42:04;;;;;;;2.05;1.20;;;3.10;82.00;;;;;;5032974;28;20426;-62
2024/03/18 06:44:30;;;;;;;1.13;0.93;;;3.10;82.30;;;;;;5031883;28;20033;-63
2024/03/18 06:46:56;;;;;;;0.98;0.68;;;3.10;82.00;;;;;;5041800;28;20457;-63
2024/03/18 06:49:21;;;;;;;1.52;1.05;;;3.10;82.00;;;;;;5041732;28;20040;-62
2024/03/18 06:51:48;;;;;;;1.33;1.00;;;3.10;82.10;;;;;;5041153;28;20077;-62
2024/03/18 06:54:14;;;;;;;1.17;0.95;;;3.10;81.90;;;;;;5025457;28;20220;-63
2024/03/18 06:56:39;;;;;;;2.63;1.20;;;3.20;82.10;;;;;;5035287;28;20501;-62
2024/03/18 06:59:05;;;;;;;2.33;1.20;;;3.20;81.70;;;;;;5044233;28;20087;-62
2024/03/18 07:01:30;;;;;;;3.20;0.80;;;3.30;81.70;;;;;;5038069;28;20422;-62
2024/03/18 07:03:56;;;;;;;4.72;1.30;;;3.30;81.90;;;;;;5035986;28;20083;-63
2024/03/18 07:06:21;;;;;;;2.70;1.48;;;3.30;81.30;;;;;;5032034;28;20411;-62
2024/03/18 07:08:47;;;;;;;3.78;1.27;;;3.30;81.20;;;;;;5030727;28;20037;-62
2024/03/18 07:11:13;;;;;;;3.05;1.42;;;3.40;81.10;;;;;;5039179;28;20461;-62
2024/03/18 07:13:39;;;;;;;1.50;0.98;;;3.40;81.30;;;;;;5027025;28;20029;-63
2024/03/18 07:16:06;;;;;;;2.17;1.08;;;3.50;81.10;;;;;;5031872;28;20037;-63
2024/03/18 07:18:32;;;;;;;2.33;1.13;;;3.50;81.30;;;;;;5031328;28;20021;-62
2024/03/18 07:20:57;;;;;;;1.35;1.00;;;3.50;80.90;;;;;;5033967;28;20109;-62
2024/03/18 07:23:24;;;;;;;3.92;1.48;;;3.60;80.90;;;;;;5036175;28;20168;-64
2024/03/18 07:25:52;;;;;;;3.10;1.25;;;3.60;80.30;;;;;;5029475;28;20040;-63
2024/03/18 07:28:18;;;;;;;3.70;1.33;;;3.70;80.90;;;;;;5034964;28;20048;-64
2024/03/18 07:30:47;;;;;;;2.33;1.35;;;3.70;80.10;;;;;;5037487;28;20065;-62
2024/03/18 07:33:13;;;;;;;2.15;0.90;;;3.70;80.10;;;;;;5032193;28;20025;-63
2024/03/18 07:35:39;;;;;;;2.85;1.27;;;3.80;80.20;;;;;;5031330;28;20440;-62
2024/03/18 07:38:04;;;;;;;3.45;1.17;;;3.80;79.80;;;;;;5030368;28;20124;-64
2024/03/18 07:40:30;;;;;;;2.50;1.15;;;3.90;80.20;;;;;;5031945;28;20025;-63
2024/03/18 07:42:56;;;;;;;3.90;1.52;;;4.00;79.60;;;;;;5036227;28;20052;-62
2024/03/18 07:45:21;;;;;;;1.60;1.00;;;4.10;79.80;;;;;;5037466;28;20044;-63
2024/03/18 07:47:47;;;;;;;2.85;1.10;;;4.10;79.30;;;;;;5028449;28;20114;-63
2024/03/18 07:50:13;;;;;;;3.08;1.20;;;4.20;79.10;;;;;;5035583;28;20116;-63
2024/03/18 07:52:38;;;;;;;2.80;1.42;;;4.20;78.50;;;;;;5029198;28;20105;-63
2024/03/18 07:55:04;;;;;;;2.58;1.33;;;4.30;78.70;;;;;;5022927;28;20041;-63
2024/03/18 07:57:29;;;;;;;5.03;1.50;;;4.40;78.40;;;;;;5025692;28;20155;-62
2024/03/18 07:59:55;;;;;;;2.35;1.27;;;4.50;78.30;;;;;;5029743;28;20040;-62
2024/03/18 08:02:20;;;;;;;3.78;1.38;;;4.40;78.30;;;;;;5037803;28;20117;-62
2024/03/18 08:04:46;;;;;;;2.63;0.95;;;4.50;77.90;;;;;;5029839;28;20029;-63
2024/03/18 08:07:12;;;;;;;4.90;1.33;;;4.60;78.30;;;;;;5032495;28;20029;-62
2024/03/18 08:09:37;;;;;;;2.22;1.38;;;4.60;77.90;;;;;;5033496;28;20441;-62
2024/03/18 08:12:03;;;;;;;2.45;1.40;;;4.60;77.70;;;;;;5033547;28;20044;-64
2024/03/18 08:14:28;;;;;;;3.83;1.42;;;4.70;77.70;;;;;;5026080;28;20048;-63
2024/03/18 08:16:58;;;;;;;2.70;0.90;;;4.70;77.20;;;;;;5032563;28;20048;-62
2024/03/18 08:19:23;;;;;;;2.35;1.23;;;4.90;77.10;;;;;;5030845;28;20044;-63
2024/03/18 08:21:49;;;;;;;3.22;1.15;;;4.80;76.60;;;;;;5030493;28;20037;-62
2024/03/18 08:24:14;;;;;;;3.42;1.30;;;5.10;76.40;;;;;;5034600;28;20409;-65
2024/03/18 08:26:40;;;;;;;2.78;1.20;;;5.10;76.60;;;;;;5031224;28;20040;-63
2024/03/18 08:29:06;;;;;;;3.10;1.20;;;5.10;75.90;;;;;;5039473;28;20025;-63
2024/03/18 08:31:31;;;;;;;3.97;1.40;;;5.40;75.80;;;;;;5039573;28;20021;-63
2024/03/18 08:33:58;;;;;;;3.83;1.40;;;5.50;75.30;;;;;;5028864;28;20028;-63
2024/03/18 08:36:24;;;;;;;2.45;1.05;;;5.60;75.30;;;;;;5032809;28;20084;-63
2024/03/18 08:38:50;;;;;;;9.30;1.20;;;5.60;75.00;;;;;;5029091;28;20476;-62
2024/03/18 08:41:16;;;;;;;2.63;1.17;;;5.60;75.10;;;;;;5037641;28;20035;-62
2024/03/18 08:43:41;;;;;;;1.40;1.10;;;5.70;74.50;;;;;;5039741;28;20076;-63
2024/03/18 08:46:08;;;;;;;2.90;1.35;;;5.80;75.20;;;;;;5038115;28;20350;-63
2024/03/18 08:48:36;;;;;;;5.65;1.42;;;5.70;74.40;;;;;;5036093;28;20020;-63
2024/03/18 08:51:04;;;;;;;2.53;1.40;;;5.70;74.00;;;;;;5036277;28;20052;-63
2024/03/18 08:53:30;;;;;;;2.33;0.98;;;5.90;74.60;;;;;;5040642;28;20063;-63
2024/03/18 08:55:56;;;;;;;3.13;1.30;;;5.80;74.00;;;;;;5033790;28;20029;-64
2024/03/18 08:58:21;;;;;;;1.70;1.10;;;6.00;74.60;;;;;;5039741;28;20060;-64
2024/03/18 09:00:48;;;;;;;1.85;1.10;;;6.10;73.60;;;;;;5035887;28;20030;-63
2024/03/18 09:03:14;;;;;;;4.35;1.40;;;6.10;73.70;;;;;;5046744;28;20060;-64
2024/03/18 09:05:39;;;;;;;1.80;1.48;;;6.10;73.60;;;;;;5039967;28;20108;-64
2024/03/18 09:08:05;;;;;;;7.10;1.90;;;6.10;73.20;;;;;;5034232;28;20025;-63
2024/03/18 09:10:31;;;;;;;3.28;1.33;;;6.30;72.90;;;;;;5038479;28;20090;-64
2024/03/18 09:12:56;;;;;;;2.67;1.52;;;6.20;73.10;;;;;;5033050;28;20061;-64
2024/03/18 09:15:22;;;;;;;2.53;1.48;;;6.20;72.90;;;;;;5035629;28;20029;-63
2024/03/18 09:17:47;;;;;;;1.40;0.88;;;6.20;73.40;;;;;;5040194;28;20385;-64
2024/03/18 09:20:16;;;;;;;2.42;1.23;;;6.30;72.80;;;;;;5037135;28;20029;-63
2024/03/18 09:22:42;;;;;;;3.33;1.10;;;6.30;73.00;;;;;;5035341;28;20021;-63
2024/03/18 09:25:09;;;;;;;2.38;1.30;;;6.30;72.50;;;;;;5029381;28;20033;-63
2024/03/18 09:27:38;;;;;;;3.50;1.33;;;6.30;72.20;;;;;;5033493;28;20401;-62
2024/03/18 09:30:05;;;;;;;1.98;1.08;;;6.30;72.30;;;;;;5037388;28;20037;-63
2024/03/18 09:32:31;;;;;;;2.97;1.20;;;6.40;72.40;;;;;;5028399;28;20450;-64
2024/03/18 09:34:56;;;;;;;2.85;1.25;;;6.50;72.40;;;;;;5032124;28;20064;-63
2024/03/18 09:37:23;;;;;;;3.17;1.33;;;6.60;72.60;;;;;;5037931;28;20045;-63
2024/03/18 09:39:48;;;;;;;2.65;0.90;;;6.60;72.10;;;;;;5033010;28;20101;-63
2024/03/18 09:42:17;;;;;;;3.25;1.48;;;6.60;71.60;;;;;;5037208;28;20477;-63
2024/03/18 09:44:42;;;;;;;3.72;1.35;;;6.60;72.00;;;;;;5037039;28;20021;-63
2024/03/18 09:47:22;;;;;;;3.17;1.30;;;6.70;71.20;;;;;;5032270;28;20056;-64
2024/03/18 09:49:52;;;;;;;3.00;1.20;;;6.90;71.30;;;;;;5036953;28;20060;-62
2024/03/18 09:52:19;;;;;;;2.85;1.13;;;7.00;70.70;;;;;;5036426;28;20040;-63
2024/03/18 09:54:46;;;;;;;3.42;1.65;;;7.00;70.30;;;;;;5030846;28;20473;-63
2024/03/18 09:57:24;;;;;;;4.18;1.50;;;7.40;70.70;;;;;;5038115;28;20488;-65
2024/03/18 09:59:50;;;;;;;3.10;1.27;;;7.60;70.20;;;;;;5035505;28;20029;-66
2024/03/18 10:02:16;;;;;;;2.63;1.17;;;7.80;69.90;;;;;;5033136;28;20049;-63
2024/03/18 10:04:42;;;;;;;1.38;0.90;;;7.70;69.40;;;;;;5036417;28;20057;-64
2024/03/18 10:07:13;;;;;;;2.30;0.95;;;7.60;68.80;;;;;;5030214;28;20390;-63
2024/03/18 10:09:39;;;;;;;;;;;7.60;68.70;;;;;;5028861;28;20548;-69
2024/03/18 10:12:11;;;;;;;2.72;1.23;;;7.50;68.40;;;;;;5030412;28;19932;-63
2024/03/18 10:14:36;;;;;;;1.58;0.95;;;7.80;68.50;;;;;;5039930;28;20017;-76
2024/03/18 10:17:03;;;;;;;2.05;1.10;;;8.10;68.70;;;;;;5036421;28;20131;-63
2024/03/18 10:19:30;;;;;;;3.30;1.17;;;8.50;67.90;;;;;;5031129;28;20454;-65
2024/03/18 10:21:56;;;;;;;1.98;1.08;;;8.60;66.80;;;;;;5040328;28;20128;-63
2024/03/18 10:24:22;;;;;;;3.25;1.10;;;8.70;66.80;;;;;;5037843;28;20041;-65
2024/03/18 10:26:48;;;;;;;3.20;1.00;;;8.60;65.80;;;;;;5033080;28;20041;-63
2024/03/18 10:29:14;;;;;;;3.35;1.50;;;8.50;67.00;;;;;;5032816;28;20512;-63
2024/03/18 10:31:40;;;;;;;2.42;1.30;;;8.40;66.50;;;;;;5034982;28;20179;-63
2024/03/18 10:34:06;;;;;;;2.72;1.15;;;8.40;66.50;;;;;;5031809;28;20029;-63
2024/03/18 10:36:35;;;;;;;2.45;1.02;;;8.60;66.10;;;;;;5040561;28;20079;-64
2024/03/18 10:39:07;;;;;;;4.03;1.17;;;8.80;65.60;;;;;;5036231;28;20061;-65
2024/03/18 10:41:37;;;;;;;2.17;1.13;;;9.20;65.20;;;;;;5035195;28;20037;-63
2024/03/18 10:44:14;;;;;;;5.10;1.47;;;9.10;64.50;;;;;;5033869;28;20124;-63
2024/03/18 10:46:41;;;;;;;2.58;1.10;;;9.50;64.70;;;;;;5033957;28;20628;-64
2024/03/18 10:49:13;;;;;;;4.28;1.38;;;9.90;62.70;;;;;;5031014;28;20025;-63
2024/03/18 10:51:39;;;;;;;2.20;1.10;;;9.90;62.50;;;;;;5037318;28;20062;-63
2024/03/18 10:54:05;;;;;;;4.20;1.48;;;9.60;62.50;;;;;;5038220;28;20041;-64
2024/03/18 10:56:30;;;;;;;2.95;1.10;;;9.40;62.80;;;;;;5034801;28;20055;-64
2024/03/18 10:58:56;;;;;;;3.92;1.38;;;9.60;64.40;;;;;;5035662;28;20452;-64
2024/03/18 11:01:22;;;;;;;3.60;1.15;;;9.60;62.70;;;;;;5030076;28;20120;-64
2024/03/18 11:03:51;;;;;;;2.05;1.27;;;9.70;62.60;;;;;;5037932;28;20017;-63
2024/03/18 11:06:16;;;;;;;2.88;1.30;;;9.70;62.20;;;;;;5030293;28;20099;-64
2024/03/18 11:08:42;;;;;;;2.25;1.08;;;9.40;61.80;;;;;;5042078;28;20037;-63
2024/03/18 11:11:15;;;;;;;3.28;1.40;;;9.60;63.80;;;;;;5030825;28;20041;-63
2024/03/18 11:13:42;;;;;;;2.95;1.25;;;9.60;63.00;;;;;;5032058;28;20516;-64
2024/03/18 11:16:11;;;;;;;2.90;0.95;;;9.60;63.90;;;;;;5035164;28;20059;-63
2024/03/18 11:18:45;;;;;;;2.65;1.05;;;9.40;63.20;;;;;;5035288;28;20025;-64
2024/03/18 11:21:19;;;;;;;3.45;1.45;;;9.20;64.10;;;;;;5033433;28;20040;-64
2024/03/18 11:23:56;;;;;;;3.58;1.25;;;9.30;63.70;;;;;;5030577;28;20461;-64
2024/03/18 11:26:24;;;;;;;3.65;1.23;;;9.00;64.10;;;;;;5031474;28;20061;-64
2024/03/18 11:29:02;;;;;;;1.75;1.00;;;9.00;64.40;;;;;;5041353;28;20051;-64
2024/03/18 11:31:34;;;;;;;2.92;1.48;;;9.30;63.80;;;;;;5031357;28;20033;-63
2024/03/18 11:34:00;;;;;;;1.83;1.02;;;9.10;64.70;;;;;;5032036;28;20025;-63
2024/03/18 11:36:25;;;;;;;1.83;0.90;;;9.30;64.30;;;;;;5029578;28;20110;-63
2024/03/18 11:38:51;;;;;;;2.40;1.02;;;9.30;63.60;;;;;;5031307;28;20036;-64
2024/03/18 11:41:17;;;;;;;2.38;1.20;;;9.60;64.10;;;;;;5031592;28;20366;-63
2024/03/18 11:43:48;;;;;;;1.75;1.20;;;9.60;63.20;;;;;;5030318;28;20390;-63
2024/03/18 11:46:15;;;;;;;;;;;9.80;64.20;;;;;;5040449;28;20036;-64
2024/03/18 11:48:41;;;;;;;2.70;1.23;;;9.70;62.60;;;;;;5039028;28;19929;-64
2024/03/18 11:51:09;;;;;;;3.17;1.30;;;9.90;62.50;;;;;;5041324;28;20094;-63
2024/03/18 11:53:34;;;;;;;6.72;1.80;;;9.90;62.50;;;;;;5038725;28;20102;-66
2024/03/18 11:56:00;;;;;;;2.75;1.25;;;10.30;62.20;;;;;;5032484;28;20028;-63
2024/03/18 11:58:26;;;;;;;2.65;1.23;;;10.30;62.10;;;;;;5040159;28;20157;-63
2024/03/18 12:00:52;;;;;;;2.22;1.30;;;10.50;62.10;;;;;;5040068;28;20036;-64
2024/03/18 12:03:18;;;;;;;3.78;1.50;;;10.70;62.00;;;;;;5045599;28;20061;-63
2024/03/18 12:05:48;;;;;;;3.65;1.20;;;10.40;62.10;;;;;;5033778;28;20138;-63
2024/03/18 12:08:24;;;;;;;3.43;1.27;;;10.40;62.10;;;;;;5045251;28;20040;-63
2024/03/18 12:10:54;;;;;;;2.20;1.27;;;10.10;62.00;;;;;;5035770;28;20464;-63
2024/03/18 12:13:22;;;;;;;2.70;1.15;;;10.00;62.20;;;;;;5041362;28;20029;-63
2024/03/18 12:15:48;;;;;;;2.97;1.30;;;10.20;62.80;;;;;;5036368;28;20034;-63
2024/03/18 12:18:13;;;;;;;2.50;1.38;;;10.20;62.30;;;;;;5034714;28;20442;-64
2024/03/18 12:20:39;;;;;;;5.25;1.38;;;10.20;61.90;;;;;;5038960;28;20057;-63
2024/03/18 12:23:06;;;;;;;3.65;1.38;;;10.50;62.90;;;;;;5038078;28;20029;-63
2024/03/18 12:28:32;;;;;;;3.63;1.25;;;10.70;61.00;;;;;;5038069;28;20048;-64
2024/03/18 12:31:01;;;;;;;2.97;1.17;;;11.00;60.90;;;;;;5041646;28;20059;-63
2024/03/18 12:33:31;;;;;;;3.22;1.38;;;11.00;60.40;;;;;;5040073;28;20108;-63
2024/03/18 12:35:56;;;;;;;2.88;1.50;;;10.60;60.40;;;;;;5036567;28;20045;-63
2024/03/18 12:38:26;;;;;;;2.40;1.40;;;10.50;60.80;;;;;;5030636;28;20600;-63
2024/03/18 12:40:52;;;;;;;3.60;1.38;;;10.30;61.60;;;;;;5031297;28;20041;-64
2024/03/18 12:43:17;;;;;;;3.65;1.52;;;11.00;60.20;;;;;;5035290;28;20041;-63
2024/03/18 12:45:43;;;;;;;3.28;1.52;;;11.20;59.80;;;;;;5029179;28;20412;-64
2024/03/18 12:48:09;;;;;;;3.00;1.23;;;12.00;58.80;;;;;;5038328;28;20029;-65
2024/03/18 12:50:36;;;;;;;2.83;1.67;;;11.60;57.70;;;;;;5042615;28;20022;-64
2024/03/18 12:53:04;;;;;;;4.15;1.50;;;11.40;58.70;;;;;;5031590;28;20331;-64
2024/03/18 12:55:30;;;;;;;3.40;1.38;;;11.30;59.60;;;;;;5031061;28;20105;-64
2024/03/18 12:57:56;;;;;;;2.65;1.20;;;11.30;59.30;;;;;;5037272;28;20094;-63
2024/03/18 13:00:22;;;;;;;3.78;1.20;;;11.40;59.80;;;;;;5040345;28;20100;-64
2024/03/18 13:02:48;;;;;;;3.15;1.40;;;11.50;59.80;;;;;;5044351;28;20401;-63